Terminal Aerodrome Forecast
Issued by NWS

Home | Current Version | Previous Version | Text Only | Print | Product List | Glossary On
Versions: 1 2 3 4 5 6 7 8 9 10 11 12 13 14
000
FTUS43 KDVN 271100
TAFCID
TAF
KCID 271126Z 2712/2812 15006KT P6SM SCT080
      TEMPO 2712/2713 5SM BR
     FM280000 10004KT P6SM SCT120
     FM280900 09003KT 4SM BR SCT250=

USA.gov is the U.S. government's official web portal to all federal, state and local government web resources and services.